sensor_id;sensor_type;location;lat;lon;timestamp;temperature;humidity
25188;DHT22;13141;50.414;8.050;2022-08-24T00:00:25;20.80;88.50
25188;DHT22;13141;50.414;8.050;2022-08-24T00:02:51;20.90;90.70
25188;DHT22;13141;50.414;8.050;2022-08-24T00:05:18;20.80;90.60
25188;DHT22;13141;50.414;8.050;2022-08-24T00:07:46;20.70;90.10
25188;DHT22;13141;50.414;8.050;2022-08-24T00:10:12;20.90;90.10
25188;DHT22;13141;50.414;8.050;2022-08-24T00:12:42;20.70;91.50
25188;DHT22;13141;50.414;8.050;2022-08-24T00:15:09;20.70;90.20
25188;DHT22;13141;50.414;8.050;2022-08-24T00:17:36;20.50;90.40
25188;DHT22;13141;50.414;8.050;2022-08-24T00:20:02;21.10;90.30
25188;DHT22;13141;50.414;8.050;2022-08-24T00:22:28;21.00;90.60
25188;DHT22;13141;50.414;8.050;2022-08-24T00:24:54;21.20;90.50
25188;DHT22;13141;50.414;8.050;2022-08-24T00:27:21;20.50;90.10
25188;DHT22;13141;50.414;8.050;2022-08-24T00:29:46;21.10;91.40
25188;DHT22;13141;50.414;8.050;2022-08-24T00:32:13;21.00;90.20
25188;DHT22;13141;50.414;8.050;2022-08-24T00:34:39;21.00;90.60
25188;DHT22;13141;50.414;8.050;2022-08-24T00:37:04;21.00;91.50
25188;DHT22;13141;50.414;8.050;2022-08-24T00:39:30;21.00;91.40
25188;DHT22;13141;50.414;8.050;2022-08-24T00:41:56;20.90;91.70
25188;DHT22;13141;50.414;8.050;2022-08-24T00:44:22;21.00;92.10
25188;DHT22;13141;50.414;8.050;2022-08-24T00:46:58;21.00;91.50
25188;DHT22;13141;50.414;8.050;2022-08-24T00:49:41;20.70;92.60
25188;DHT22;13141;50.414;8.050;2022-08-24T00:52:13;20.70;92.30
25188;DHT22;13141;50.414;8.050;2022-08-24T00:54:48;20.60;92.80
25188;DHT22;13141;50.414;8.050;2022-08-24T00:57:22;20.60;93.10
25188;DHT22;13141;50.414;8.050;2022-08-24T00:59:59;20.50;93.70
25188;DHT22;13141;50.414;8.050;2022-08-24T01:02:31;20.40;93.80
25188;DHT22;13141;50.414;8.050;2022-08-24T01:05:01;20.60;94.00
25188;DHT22;13141;50.414;8.050;2022-08-24T01:07:33;20.20;94.00
25188;DHT22;13141;50.414;8.050;2022-08-24T01:10:03;20.20;93.70
25188;DHT22;13141;50.414;8.050;2022-08-24T01:12:33;20.10;93.60
25188;DHT22;13141;50.414;8.050;2022-08-24T01:15:00;20.10;93.50
25188;DHT22;13141;50.414;8.050;2022-08-24T01:17:27;20.10;93.50
25188;DHT22;13141;50.414;8.050;2022-08-24T01:20:12;20.10;93.30
25188;DHT22;13141;50.414;8.050;2022-08-24T01:25:28;20.00;95.20
25188;DHT22;13141;50.414;8.050;2022-08-24T01:27:55;20.00;94.70
25188;DHT22;13141;50.414;8.050;2022-08-24T01:30:24;19.40;94.70
25188;DHT22;13141;50.414;8.050;2022-08-24T01:32:56;19.80;94.10
25188;DHT22;13141;50.414;8.050;2022-08-24T01:35:22;20.00;94.70
25188;DHT22;13141;50.414;8.050;2022-08-24T01:37:49;19.70;94.60
25188;DHT22;13141;50.414;8.050;2022-08-24T01:40:16;19.20;94.30
25188;DHT22;13141;50.414;8.050;2022-08-24T01:42:51;19.70;94.40
25188;DHT22;13141;50.414;8.050;2022-08-24T01:45:19;19.70;94.80
25188;DHT22;13141;50.414;8.050;2022-08-24T01:47:44;19.70;94.60
25188;DHT22;13141;50.414;8.050;2022-08-24T01:50:11;19.80;94.30
25188;DHT22;13141;50.414;8.050;2022-08-24T01:52:40;19.90;94.70
25188;DHT22;13141;50.414;8.050;2022-08-24T01:55:12;19.30;94.80
25188;DHT22;13141;50.414;8.050;2022-08-24T01:57:41;19.90;95.70
25188;DHT22;13141;50.414;8.050;2022-08-24T02:00:11;19.30;95.20
25188;DHT22;13141;50.414;8.050;2022-08-24T02:02:43;19.50;95.70
25188;DHT22;13141;50.414;8.050;2022-08-24T02:05:11;19.50;95.70
25188;DHT22;13141;50.414;8.050;2022-08-24T02:07:37;19.40;95.70
25188;DHT22;13141;50.414;8.050;2022-08-24T02:10:08;19.40;95.70
25188;DHT22;13141;50.414;8.050;2022-08-24T02:12:35;19.30;96.00
25188;DHT22;13141;50.414;8.050;2022-08-24T02:15:03;19.40;95.60
25188;DHT22;13141;50.414;8.050;2022-08-24T02:17:30;19.20;95.60
25188;DHT22;13141;50.414;8.050;2022-08-24T02:19:56;19.50;95.70
25188;DHT22;13141;50.414;8.050;2022-08-24T02:22:22;19.40;95.80
25188;DHT22;13141;50.414;8.050;2022-08-24T02:24:48;19.10;95.60
25188;DHT22;13141;50.414;8.050;2022-08-24T02:27:14;18.70;95.00
25188;DHT22;13141;50.414;8.050;2022-08-24T02:29:42;19.20;95.40
25188;DHT22;13141;50.414;8.050;2022-08-24T02:32:08;19.20;95.70
25188;DHT22;13141;50.414;8.050;2022-08-24T02:34:34;19.20;95.50
25188;DHT22;13141;50.414;8.050;2022-08-24T02:37:00;19.10;95.60
25188;DHT22;13141;50.414;8.050;2022-08-24T02:39:26;19.10;96.10
25188;DHT22;13141;50.414;8.050;2022-08-24T02:41:51;19.30;96.20
25188;DHT22;13141;50.414;8.050;2022-08-24T02:44:17;19.30;95.80
25188;DHT22;13141;50.414;8.050;2022-08-24T02:46:43;19.00;95.50
25188;DHT22;13141;50.414;8.050;2022-08-24T02:49:09;19.00;96.20
25188;DHT22;13141;50.414;8.050;2022-08-24T02:51:36;19.00;96.00
25188;DHT22;13141;50.414;8.050;2022-08-24T02:54:03;19.20;96.60
25188;DHT22;13141;50.414;8.050;2022-08-24T02:56:30;18.50;96.00
25188;DHT22;13141;50.414;8.050;2022-08-24T02:58:57;18.90;96.50
25188;DHT22;13141;50.414;8.050;2022-08-24T03:01:24;19.10;97.20
25188;DHT22;13141;50.414;8.050;2022-08-24T03:03:50;18.90;97.40
25188;DHT22;13141;50.414;8.050;2022-08-24T03:06:17;19.00;97.30
25188;DHT22;13141;50.414;8.050;2022-08-24T03:08:43;18.80;97.60
25188;DHT22;13141;50.414;8.050;2022-08-24T03:11:11;18.90;98.00
25188;DHT22;13141;50.414;8.050;2022-08-24T03:13:37;18.90;97.50
25188;DHT22;13141;50.414;8.050;2022-08-24T03:16:04;18.50;98.80
25188;DHT22;13141;50.414;8.050;2022-08-24T03:18:30;18.60;99.90
25188;DHT22;13141;50.414;8.050;2022-08-24T03:20:58;18.60;98.80
25188;DHT22;13141;50.414;8.050;2022-08-24T03:23:24;18.50;98.80
25188;DHT22;13141;50.414;8.050;2022-08-24T03:25:50;18.50;99.10
25188;DHT22;13141;50.414;8.050;2022-08-24T03:28:17;18.70;98.60
25188;DHT22;13141;50.414;8.050;2022-08-24T03:30:43;18.50;99.30
25188;DHT22;13141;50.414;8.050;2022-08-24T03:33:10;18.50;99.90
25188;DHT22;13141;50.414;8.050;2022-08-24T03:35:36;18.60;98.70
25188;DHT22;13141;50.414;8.050;2022-08-24T03:38:02;18.50;99.80
25188;DHT22;13141;50.414;8.050;2022-08-24T03:40:28;18.40;99.20
25188;DHT22;13141;50.414;8.050;2022-08-24T03:42:54;18.20;99.60
25188;DHT22;13141;50.414;8.050;2022-08-24T03:45:20;18.20;99.70
25188;DHT22;13141;50.414;8.050;2022-08-24T03:47:47;18.40;99.60
25188;DHT22;13141;50.414;8.050;2022-08-24T03:50:13;18.40;99.90
25188;DHT22;13141;50.414;8.050;2022-08-24T03:52:40;18.00;99.80
25188;DHT22;13141;50.414;8.050;2022-08-24T03:55:07;18.20;99.80
25188;DHT22;13141;50.414;8.050;2022-08-24T03:57:32;18.00;99.90
25188;DHT22;13141;50.414;8.050;2022-08-24T04:00:00;18.20;99.90
25188;DHT22;13141;50.414;8.050;2022-08-24T04:02:26;18.00;99.90
25188;DHT22;13141;50.414;8.050;2022-08-24T04:04:52;18.00;99.90
25188;DHT22;13141;50.414;8.050;2022-08-24T04:07:20;18.10;99.80
25188;DHT22;13141;50.414;8.050;2022-08-24T04:09:48;18.10;99.90
25188;DHT22;13141;50.414;8.050;2022-08-24T04:12:14;17.90;99.90
25188;DHT22;13141;50.414;8.050;2022-08-24T04:14:40;18.10;99.90
25188;DHT22;13141;50.414;8.050;2022-08-24T04:17:07;17.70;99.90
25188;DHT22;13141;50.414;8.050;2022-08-24T04:19:33;17.80;99.40
25188;DHT22;13141;50.414;8.050;2022-08-24T04:21:59;17.80;99.90
25188;DHT22;13141;50.414;8.050;2022-08-24T04:24:27;17.90;99.60
25188;DHT22;13141;50.414;8.050;2022-08-24T04:26:53;17.40;99.50
25188;DHT22;13141;50.414;8.050;2022-08-24T04:29:19;17.80;99.90
25188;DHT22;13141;50.414;8.050;2022-08-24T04:31:46;17.80;99.60
25188;DHT22;13141;50.414;8.050;2022-08-24T04:34:13;17.60;99.90
25188;DHT22;13141;50.414;8.050;2022-08-24T04:36:41;17.90;99.90
25188;DHT22;13141;50.414;8.050;2022-08-24T04:39:08;17.80;99.90
25188;DHT22;13141;50.414;8.050;2022-08-24T04:41:34;17.70;99.90
25188;DHT22;13141;50.414;8.050;2022-08-24T04:44:02;17.80;99.90
25188;DHT22;13141;50.414;8.050;2022-08-24T04:46:28;17.70;99.90
25188;DHT22;13141;50.414;8.050;2022-08-24T04:48:57;17.30;99.70
25188;DHT22;13141;50.414;8.050;2022-08-24T04:51:22;17.80;99.30
25188;DHT22;13141;50.414;8.050;2022-08-24T04:53:49;17.70;99.70
25188;DHT22;13141;50.414;8.050;2022-08-24T04:56:20;18.00;99.90
25188;DHT22;13141;50.414;8.050;2022-08-24T04:58:48;17.80;99.90
25188;DHT22;13141;50.414;8.050;2022-08-24T05:01:18;17.80;99.90
25188;DHT22;13141;50.414;8.050;2022-08-24T05:03:51;17.40;99.90
25188;DHT22;13141;50.414;8.050;2022-08-24T05:06:19;18.00;99.90
25188;DHT22;13141;50.414;8.050;2022-08-24T05:08:46;18.10;99.90
25188;DHT22;13141;50.414;8.050;2022-08-24T05:11:12;18.00;99.90
25188;DHT22;13141;50.414;8.050;2022-08-24T05:13:46;17.90;99.90
25188;DHT22;13141;50.414;8.050;2022-08-24T05:16:15;17.90;99.90
25188;DHT22;13141;50.414;8.050;2022-08-24T05:18:41;17.90;99.90
25188;DHT22;13141;50.414;8.050;2022-08-24T05:21:09;17.80;99.90
25188;DHT22;13141;50.414;8.050;2022-08-24T05:23:36;17.80;99.90
25188;DHT22;13141;50.414;8.050;2022-08-24T05:26:10;17.80;99.90
25188;DHT22;13141;50.414;8.050;2022-08-24T05:28:37;17.90;99.90
25188;DHT22;13141;50.414;8.050;2022-08-24T05:31:19;17.90;99.90
25188;DHT22;13141;50.414;8.050;2022-08-24T05:34:00;17.40;99.90
25188;DHT22;13141;50.414;8.050;2022-08-24T05:36:29;17.50;99.90
25188;DHT22;13141;50.414;8.050;2022-08-24T05:38:57;18.20;99.90
25188;DHT22;13141;50.414;8.050;2022-08-24T05:41:25;18.00;99.60
25188;DHT22;13141;50.414;8.050;2022-08-24T05:43:54;17.90;99.90
25188;DHT22;13141;50.414;8.050;2022-08-24T05:46:20;17.90;99.90
25188;DHT22;13141;50.414;8.050;2022-08-24T05:48:49;17.50;99.90
25188;DHT22;13141;50.414;8.050;2022-08-24T05:51:15;18.00;99.90
25188;DHT22;13141;50.414;8.050;2022-08-24T05:53:42;18.20;99.90
25188;DHT22;13141;50.414;8.050;2022-08-24T05:56:10;18.10;99.90
25188;DHT22;13141;50.414;8.050;2022-08-24T05:58:42;18.10;99.90
25188;DHT22;13141;50.414;8.050;2022-08-24T06:01:19;18.20;99.90
25188;DHT22;13141;50.414;8.050;2022-08-24T06:03:46;18.20;99.90
25188;DHT22;13141;50.414;8.050;2022-08-24T06:06:13;18.30;99.90
25188;DHT22;13141;50.414;8.050;2022-08-24T06:08:41;18.60;99.90
25188;DHT22;13141;50.414;8.050;2022-08-24T06:11:08;18.70;99.90
25188;DHT22;13141;50.414;8.050;2022-08-24T06:13:34;18.70;99.90
25188;DHT22;13141;50.414;8.050;2022-08-24T06:18:32;18.50;99.90
25188;DHT22;13141;50.414;8.050;2022-08-24T06:21:03;18.50;99.90
25188;DHT22;13141;50.414;8.050;2022-08-24T06:23:29;18.60;99.90
25188;DHT22;13141;50.414;8.050;2022-08-24T06:25:57;18.60;99.70
25188;DHT22;13141;50.414;8.050;2022-08-24T06:28:41;18.80;99.90
25188;DHT22;13141;50.414;8.050;2022-08-24T06:31:07;18.70;99.90
25188;DHT22;13141;50.414;8.050;2022-08-24T06:33:41;18.20;99.90
25188;DHT22;13141;50.414;8.050;2022-08-24T06:36:07;18.90;99.90
25188;DHT22;13141;50.414;8.050;2022-08-24T06:38:33;18.80;99.60
25188;DHT22;13141;50.414;8.050;2022-08-24T06:40:59;18.80;99.70
25188;DHT22;13141;50.414;8.050;2022-08-24T06:43:25;18.90;99.40
25188;DHT22;13141;50.414;8.050;2022-08-24T06:45:54;18.90;99.80
25188;DHT22;13141;50.414;8.050;2022-08-24T06:48:20;18.40;99.50
25188;DHT22;13141;50.414;8.050;2022-08-24T06:50:46;19.20;99.90
25188;DHT22;13141;50.414;8.050;2022-08-24T06:53:13;19.20;99.90
25188;DHT22;13141;50.414;8.050;2022-08-24T06:55:51;19.10;99.30
25188;DHT22;13141;50.414;8.050;2022-08-24T06:58:18;19.40;99.80
25188;DHT22;13141;50.414;8.050;2022-08-24T07:00:45;19.30;99.50
25188;DHT22;13141;50.414;8.050;2022-08-24T07:03:11;19.60;99.90
25188;DHT22;13141;50.414;8.050;2022-08-24T07:05:37;19.70;99.90
25188;DHT22;13141;50.414;8.050;2022-08-24T07:08:05;19.60;99.60
25188;DHT22;13141;50.414;8.050;2022-08-24T07:10:31;19.50;99.60
25188;DHT22;13141;50.414;8.050;2022-08-24T07:12:57;19.60;99.60
25188;DHT22;13141;50.414;8.050;2022-08-24T07:15:23;19.70;99.10
25188;DHT22;13141;50.414;8.050;2022-08-24T07:17:49;20.00;98.70
25188;DHT22;13141;50.414;8.050;2022-08-24T07:20:15;19.80;98.70
25188;DHT22;13141;50.414;8.050;2022-08-24T07:22:42;19.90;99.00
25188;DHT22;13141;50.414;8.050;2022-08-24T07:25:10;19.60;98.40
25188;DHT22;13141;50.414;8.050;2022-08-24T07:27:36;20.00;99.00
25188;DHT22;13141;50.414;8.050;2022-08-24T07:30:02;20.00;98.80
25188;DHT22;13141;50.414;8.050;2022-08-24T07:32:28;20.00;99.00
25188;DHT22;13141;50.414;8.050;2022-08-24T07:34:54;20.20;99.70
25188;DHT22;13141;50.414;8.050;2022-08-24T07:37:19;20.20;99.00
25188;DHT22;13141;50.414;8.050;2022-08-24T07:39:45;20.40;99.10
25188;DHT22;13141;50.414;8.050;2022-08-24T07:42:11;20.40;99.30
25188;DHT22;13141;50.414;8.050;2022-08-24T07:44:37;20.50;98.80
25188;DHT22;13141;50.414;8.050;2022-08-24T07:47:03;20.60;99.40
25188;DHT22;13141;50.414;8.050;2022-08-24T07:49:29;20.80;99.30
25188;DHT22;13141;50.414;8.050;2022-08-24T07:51:56;21.10;99.00
25188;DHT22;13141;50.414;8.050;2022-08-24T07:54:22;21.50;99.20
25188;DHT22;13141;50.414;8.050;2022-08-24T07:56:47;21.80;98.80
25188;DHT22;13141;50.414;8.050;2022-08-24T07:59:15;21.80;98.70
25188;DHT22;13141;50.414;8.050;2022-08-24T08:01:41;22.00;98.40
25188;DHT22;13141;50.414;8.050;2022-08-24T08:04:07;22.10;98.30
25188;DHT22;13141;50.414;8.050;2022-08-24T08:06:33;22.40;98.40
25188;DHT22;13141;50.414;8.050;2022-08-24T08:08:59;22.80;98.10
25188;DHT22;13141;50.414;8.050;2022-08-24T08:11:25;23.00;97.80
25188;DHT22;13141;50.414;8.050;2022-08-24T08:13:51;23.20;97.70
25188;DHT22;13141;50.414;8.050;2022-08-24T08:16:18;23.50;97.30
25188;DHT22;13141;50.414;8.050;2022-08-24T08:18:45;23.50;96.60
25188;DHT22;13141;50.414;8.050;2022-08-24T08:21:11;23.60;96.30
25188;DHT22;13141;50.414;8.050;2022-08-24T08:23:57;23.90;96.60
25188;DHT22;13141;50.414;8.050;2022-08-24T08:26:43;24.30;95.50
25188;DHT22;13141;50.414;8.050;2022-08-24T08:29:10;24.50;96.20
25188;DHT22;13141;50.414;8.050;2022-08-24T08:31:40;24.80;95.70
25188;DHT22;13141;50.414;8.050;2022-08-24T08:34:07;25.10;95.00
25188;DHT22;13141;50.414;8.050;2022-08-24T08:36:33;25.40;95.30
25188;DHT22;13141;50.414;8.050;2022-08-24T08:38:59;25.60;94.20
25188;DHT22;13141;50.414;8.050;2022-08-24T08:47:07;26.30;93.10
25188;DHT22;13141;50.414;8.050;2022-08-24T08:59:04;27.20;90.70
25188;DHT22;13141;50.414;8.050;2022-08-24T09:02:09;27.50;89.10
25188;DHT22;13141;50.414;8.050;2022-08-24T09:04:46;27.90;89.40
25188;DHT22;13141;50.414;8.050;2022-08-24T09:21:14;28.90;81.90
25188;DHT22;13141;50.414;8.050;2022-08-24T09:26:47;29.50;78.90
25188;DHT22;13141;50.414;8.050;2022-08-24T09:29:18;29.60;76.40
25188;DHT22;13141;50.414;8.050;2022-08-24T09:34:55;30.00;76.00
25188;DHT22;13141;50.414;8.050;2022-08-24T09:57:35;31.60;63.30
25188;DHT22;13141;50.414;8.050;2022-08-24T10:00:07;31.90;64.30
25188;DHT22;13141;50.414;8.050;2022-08-24T10:08:59;33.20;62.80
25188;DHT22;13141;50.414;8.050;2022-08-24T10:11:57;33.40;57.60
25188;DHT22;13141;50.414;8.050;2022-08-24T10:20:28;34.40;58.70
25188;DHT22;13141;50.414;8.050;2022-08-24T10:26:29;35.10;58.00
25188;DHT22;13141;50.414;8.050;2022-08-24T10:35:02;34.70;53.30
25188;DHT22;13141;50.414;8.050;2022-08-24T10:46:47;36.30;50.70
25188;DHT22;13141;50.414;8.050;2022-08-24T10:52:41;36.80;52.50
25188;DHT22;13141;50.414;8.050;2022-08-24T10:55:28;37.30;50.40
25188;DHT22;13141;50.414;8.050;2022-08-24T10:58:12;37.80;48.90
25188;DHT22;13141;50.414;8.050;2022-08-24T11:00:44;37.80;48.80
25188;DHT22;13141;50.414;8.050;2022-08-24T11:03:16;37.90;48.80
25188;DHT22;13141;50.414;8.050;2022-08-24T11:06:13;38.20;48.70
25188;DHT22;13141;50.414;8.050;2022-08-24T11:08:54;38.40;47.70
25188;DHT22;13141;50.414;8.050;2022-08-24T11:11:27;37.80;47.00
25188;DHT22;13141;50.414;8.050;2022-08-24T11:13:58;37.80;46.30
25188;DHT22;13141;50.414;8.050;2022-08-24T11:16:32;37.80;42.60
25188;DHT22;13141;50.414;8.050;2022-08-24T11:19:02;37.50;42.90
25188;DHT22;13141;50.414;8.050;2022-08-24T11:21:36;37.80;45.50
25188;DHT22;13141;50.414;8.050;2022-08-24T11:32:46;39.20;43.30
25188;DHT22;13141;50.414;8.050;2022-08-24T11:35:23;39.40;42.50
25188;DHT22;13141;50.414;8.050;2022-08-24T11:37:52;39.60;42.30
25188;DHT22;13141;50.414;8.050;2022-08-24T11:40:21;39.90;42.20
25188;DHT22;13141;50.414;8.050;2022-08-24T11:50:56;39.20;39.80
25188;DHT22;13141;50.414;8.050;2022-08-24T11:59:32;39.80;39.50
25188;DHT22;13141;50.414;8.050;2022-08-24T12:02:15;40.30;40.80
25188;DHT22;13141;50.414;8.050;2022-08-24T12:04:54;40.70;39.20
25188;DHT22;13141;50.414;8.050;2022-08-24T12:08:03;40.90;38.60
25188;DHT22;13141;50.414;8.050;2022-08-24T12:11:01;41.10;37.80
25188;DHT22;13141;50.414;8.050;2022-08-24T12:13:41;40.90;37.70
25188;DHT22;13141;50.414;8.050;2022-08-24T12:21:22;41.30;36.80
25188;DHT22;13141;50.414;8.050;2022-08-24T12:24:01;40.90;35.00
25188;DHT22;13141;50.414;8.050;2022-08-24T12:26:34;40.80;35.80
25188;DHT22;13141;50.414;8.050;2022-08-24T12:29:15;40.80;36.50
25188;DHT22;13141;50.414;8.050;2022-08-24T12:31:49;41.30;35.50
25188;DHT22;13141;50.414;8.050;2022-08-24T12:34:43;41.80;36.80
25188;DHT22;13141;50.414;8.050;2022-08-24T12:40:22;42.60;35.90
25188;DHT22;13141;50.414;8.050;2022-08-24T12:43:10;42.80;35.10
25188;DHT22;13141;50.414;8.050;2022-08-24T12:45:38;43.00;34.00
25188;DHT22;13141;50.414;8.050;2022-08-24T12:48:13;43.00;36.30
25188;DHT22;13141;50.414;8.050;2022-08-24T12:53:58;43.40;34.50
25188;DHT22;13141;50.414;8.050;2022-08-24T12:59:26;43.30;34.40
25188;DHT22;13141;50.414;8.050;2022-08-24T13:02:02;43.40;35.00
25188;DHT22;13141;50.414;8.050;2022-08-24T13:04:52;42.90;33.40
25188;DHT22;13141;50.414;8.050;2022-08-24T13:23:06;43.20;32.00
25188;DHT22;13141;50.414;8.050;2022-08-24T13:31:14;43.40;31.80
25188;DHT22;13141;50.414;8.050;2022-08-24T13:33:51;42.90;32.60
25188;DHT22;13141;50.414;8.050;2022-08-24T13:44:34;42.80;33.30
25188;DHT22;13141;50.414;8.050;2022-08-24T13:47:15;42.30;32.60
25188;DHT22;13141;50.414;8.050;2022-08-24T14:05:53;41.10;32.30
25188;DHT22;13141;50.414;8.050;2022-08-24T14:08:46;41.30;32.60
25188;DHT22;13141;50.414;8.050;2022-08-24T14:14:15;42.10;32.60
25188;DHT22;13141;50.414;8.050;2022-08-24T14:17:02;42.60;31.20
25188;DHT22;13141;50.414;8.050;2022-08-24T14:25:43;42.10;29.90
25188;DHT22;13141;50.414;8.050;2022-08-24T14:28:44;42.30;31.40
25188;DHT22;13141;50.414;8.050;2022-08-24T14:31:23;42.60;30.70
25188;DHT22;13141;50.414;8.050;2022-08-24T14:42:46;43.20;30.20
25188;DHT22;13141;50.414;8.050;2022-08-24T14:45:21;43.40;29.30
25188;DHT22;13141;50.414;8.050;2022-08-24T15:05:00;42.90;28.90
25188;DHT22;13141;50.414;8.050;2022-08-24T15:07:33;42.80;28.80
25188;DHT22;13141;50.414;8.050;2022-08-24T15:10:00;42.90;29.10
25188;DHT22;13141;50.414;8.050;2022-08-24T15:12:48;42.90;28.60
25188;DHT22;13141;50.414;8.050;2022-08-24T15:15:36;42.90;28.20
25188;DHT22;13141;50.414;8.050;2022-08-24T15:26:26;43.10;29.20
25188;DHT22;13141;50.414;8.050;2022-08-24T15:28:53;42.90;29.00
25188;DHT22;13141;50.414;8.050;2022-08-24T15:31:26;43.00;29.90
25188;DHT22;13141;50.414;8.050;2022-08-24T15:34:01;42.90;28.90
25188;DHT22;13141;50.414;8.050;2022-08-24T15:36:29;42.80;29.00
25188;DHT22;13141;50.414;8.050;2022-08-24T15:38:57;42.40;28.90
25188;DHT22;13141;50.414;8.050;2022-08-24T15:41:27;42.30;29.10
25188;DHT22;13141;50.414;8.050;2022-08-24T15:44:07;42.10;28.70
25188;DHT22;13141;50.414;8.050;2022-08-24T15:47:25;41.90;28.80
25188;DHT22;13141;50.414;8.050;2022-08-24T15:50:05;41.60;29.10
25188;DHT22;13141;50.414;8.050;2022-08-24T15:55:33;41.40;29.00
25188;DHT22;13141;50.414;8.050;2022-08-24T15:58:25;41.40;30.00
25188;DHT22;13141;50.414;8.050;2022-08-24T16:00:59;41.50;29.70
25188;DHT22;13141;50.414;8.050;2022-08-24T16:03:50;41.50;30.50
25188;DHT22;13141;50.414;8.050;2022-08-24T16:06:23;41.40;31.40
25188;DHT22;13141;50.414;8.050;2022-08-24T16:14:43;41.10;29.90
25188;DHT22;13141;50.414;8.050;2022-08-24T16:17:33;41.00;29.60
25188;DHT22;13141;50.414;8.050;2022-08-24T16:20:16;40.70;29.90
25188;DHT22;13141;50.414;8.050;2022-08-24T16:22:56;40.60;30.30
25188;DHT22;13141;50.414;8.050;2022-08-24T16:25:29;40.60;30.80
25188;DHT22;13141;50.414;8.050;2022-08-24T16:28:10;40.50;30.60
25188;DHT22;13141;50.414;8.050;2022-08-24T16:30:53;40.30;30.40
25188;DHT22;13141;50.414;8.050;2022-08-24T16:33:46;40.50;31.40
25188;DHT22;13141;50.414;8.050;2022-08-24T16:36:14;40.10;31.20
25188;DHT22;13141;50.414;8.050;2022-08-24T16:38:49;40.00;31.40
25188;DHT22;13141;50.414;8.050;2022-08-24T16:41:17;39.90;31.80
25188;DHT22;13141;50.414;8.050;2022-08-24T16:43:45;39.70;32.10
25188;DHT22;13141;50.414;8.050;2022-08-24T16:46:12;39.60;32.40
25188;DHT22;13141;50.414;8.050;2022-08-24T16:48:38;39.40;31.80
25188;DHT22;13141;50.414;8.050;2022-08-24T16:51:04;39.30;32.50
25188;DHT22;13141;50.414;8.050;2022-08-24T16:53:30;39.30;32.80
25188;DHT22;13141;50.414;8.050;2022-08-24T16:55:57;39.30;33.10
25188;DHT22;13141;50.414;8.050;2022-08-24T16:58:30;39.20;32.80
25188;DHT22;13141;50.414;8.050;2022-08-24T17:00:56;39.10;33.10
25188;DHT22;13141;50.414;8.050;2022-08-24T17:03:22;38.80;32.90
25188;DHT22;13141;50.414;8.050;2022-08-24T17:05:48;38.70;32.70
25188;DHT22;13141;50.414;8.050;2022-08-24T17:08:14;38.50;32.50
25188;DHT22;13141;50.414;8.050;2022-08-24T17:10:39;38.40;32.70
25188;DHT22;13141;50.414;8.050;2022-08-24T17:13:05;38.30;33.10
25188;DHT22;13141;50.414;8.050;2022-08-24T17:15:32;38.40;33.50
25188;DHT22;13141;50.414;8.050;2022-08-24T17:18:06;38.40;33.50
25188;DHT22;13141;50.414;8.050;2022-08-24T17:20:33;38.40;33.30
25188;DHT22;13141;50.414;8.050;2022-08-24T17:22:59;38.50;33.30
25188;DHT22;13141;50.414;8.050;2022-08-24T17:25:36;38.40;33.60
25188;DHT22;13141;50.414;8.050;2022-08-24T17:28:05;38.50;34.10
25188;DHT22;13141;50.414;8.050;2022-08-24T17:30:31;38.40;33.90
25188;DHT22;13141;50.414;8.050;2022-08-24T17:32:57;38.40;34.20
25188;DHT22;13141;50.414;8.050;2022-08-24T17:35:23;38.30;33.90
25188;DHT22;13141;50.414;8.050;2022-08-24T17:37:51;38.30;34.00
25188;DHT22;13141;50.414;8.050;2022-08-24T17:40:21;38.20;34.30
25188;DHT22;13141;50.414;8.050;2022-08-24T17:42:48;37.50;33.80
25188;DHT22;13141;50.414;8.050;2022-08-24T17:45:14;38.10;34.40
25188;DHT22;13141;50.414;8.050;2022-08-24T17:47:41;38.10;34.30
25188;DHT22;13141;50.414;8.050;2022-08-24T17:50:08;37.90;34.30
25188;DHT22;13141;50.414;8.050;2022-08-24T17:52:36;37.80;34.30
25188;DHT22;13141;50.414;8.050;2022-08-24T17:55:03;37.60;34.40
25188;DHT22;13141;50.414;8.050;2022-08-24T17:57:29;37.40;34.60
25188;DHT22;13141;50.414;8.050;2022-08-24T17:59:55;37.20;34.50
25188;DHT22;13141;50.414;8.050;2022-08-24T18:02:20;37.30;34.60
25188;DHT22;13141;50.414;8.050;2022-08-24T18:04:47;36.90;34.70
25188;DHT22;13141;50.414;8.050;2022-08-24T18:07:15;36.30;34.40
25188;DHT22;13141;50.414;8.050;2022-08-24T18:09:48;36.60;34.80
25188;DHT22;13141;50.414;8.050;2022-08-24T18:12:16;36.50;34.80
25188;DHT22;13141;50.414;8.050;2022-08-24T18:14:42;36.30;34.90
25188;DHT22;13141;50.414;8.050;2022-08-24T18:17:14;36.20;35.00
25188;DHT22;13141;50.414;8.050;2022-08-24T18:19:42;36.10;35.00
25188;DHT22;13141;50.414;8.050;2022-08-24T18:22:09;35.90;35.80
25188;DHT22;13141;50.414;8.050;2022-08-24T18:24:35;35.70;35.30
25188;DHT22;13141;50.414;8.050;2022-08-24T18:27:09;35.60;35.50
25188;DHT22;13141;50.414;8.050;2022-08-24T18:29:37;35.40;35.70
25188;DHT22;13141;50.414;8.050;2022-08-24T18:32:04;35.20;35.70
25188;DHT22;13141;50.414;8.050;2022-08-24T18:34:29;35.00;35.80
25188;DHT22;13141;50.414;8.050;2022-08-24T18:36:56;34.90;36.00
25188;DHT22;13141;50.414;8.050;2022-08-24T18:39:22;34.70;35.70
25188;DHT22;13141;50.414;8.050;2022-08-24T18:41:48;34.60;36.00
25188;DHT22;13141;50.414;8.050;2022-08-24T18:44:17;34.40;36.00
25188;DHT22;13141;50.414;8.050;2022-08-24T18:46:43;34.30;36.20
25188;DHT22;13141;50.414;8.050;2022-08-24T18:49:09;34.20;36.30
25188;DHT22;13141;50.414;8.050;2022-08-24T18:51:35;34.00;36.60
25188;DHT22;13141;50.414;8.050;2022-08-24T18:54:11;33.90;36.70
25188;DHT22;13141;50.414;8.050;2022-08-24T18:56:37;33.70;36.80
25188;DHT22;13141;50.414;8.050;2022-08-24T18:59:03;33.60;36.90
25188;DHT22;13141;50.414;8.050;2022-08-24T19:01:31;33.10;36.80
25188;DHT22;13141;50.414;8.050;2022-08-24T19:04:18;33.50;37.30
25188;DHT22;13141;50.414;8.050;2022-08-24T19:06:43;33.40;37.40
25188;DHT22;13141;50.414;8.050;2022-08-24T19:09:09;33.30;37.60
25188;DHT22;13141;50.414;8.050;2022-08-24T19:11:35;33.20;38.00
25188;DHT22;13141;50.414;8.050;2022-08-24T19:14:00;33.10;38.60
25188;DHT22;13141;50.414;8.050;2022-08-24T19:16:27;33.00;39.80
25188;DHT22;13141;50.414;8.050;2022-08-24T19:18:53;32.90;41.30
25188;DHT22;13141;50.414;8.050;2022-08-24T19:21:19;32.80;41.90
25188;DHT22;13141;50.414;8.050;2022-08-24T19:23:45;32.60;42.20
25188;DHT22;13141;50.414;8.050;2022-08-24T19:26:11;32.50;42.70
25188;DHT22;13141;50.414;8.050;2022-08-24T19:28:38;32.40;43.20
25188;DHT22;13141;50.414;8.050;2022-08-24T19:31:09;32.20;42.70
25188;DHT22;13141;50.414;8.050;2022-08-24T19:33:43;32.10;43.70
25188;DHT22;13141;50.414;8.050;2022-08-24T19:36:13;32.00;44.70
25188;DHT22;13141;50.414;8.050;2022-08-24T19:38:40;31.90;43.20